createdAt,value
2022-09-20T00:01:35.947Z,23.90
2022-09-20T00:04:07.045Z,23.90
2022-09-20T00:06:36.672Z,24.10
2022-09-20T00:09:06.416Z,24.10
2022-09-20T00:11:37.057Z,24.10
2022-09-20T00:14:09.405Z,24.00
2022-09-20T00:16:42.471Z,24.10
2022-09-20T00:19:19.860Z,23.70
2022-09-20T00:21:48.973Z,23.80
2022-09-20T00:24:17.563Z,23.90
2022-09-20T00:26:46.216Z,24.00
2022-09-20T00:29:15.389Z,24.10
2022-09-20T00:31:45.402Z,23.80
2022-09-20T00:34:31.541Z,23.90
2022-09-20T00:37:00.303Z,24.00
2022-09-20T00:39:29.034Z,23.90
2022-09-20T00:41:57.658Z,23.60
2022-09-20T00:44:45.497Z,23.50
2022-09-20T00:47:35.691Z,22.90
2022-09-20T00:50:28.949Z,23.10
2022-09-20T00:53:05.500Z,23.30
2022-09-20T00:55:39.633Z,22.80
2022-09-20T00:58:09.773Z,22.40
2022-09-20T01:00:40.185Z,22.60
2022-09-20T01:03:12.400Z,22.60
2022-09-20T01:05:45.401Z,22.60
2022-09-20T01:08:14.866Z,22.70
2022-09-20T01:10:44.004Z,22.90
2022-09-20T01:13:12.680Z,23.20
2022-09-20T01:15:43.903Z,23.00
2022-09-20T01:18:16.146Z,23.10
2022-09-20T01:20:48.397Z,23.20
2022-09-20T01:23:50.862Z,23.00
2022-09-20T01:27:06.943Z,23.10
2022-09-20T01:30:08.300Z,23.20
2022-09-20T01:32:57.778Z,23.20
2022-09-20T01:35:29.107Z,23.30
2022-09-20T01:38:27.050Z,23.20
2022-09-20T01:41:06.052Z,23.40
2022-09-20T01:43:42.718Z,23.50
2022-09-20T01:46:31.966Z,23.60
2022-09-20T01:49:21.198Z,23.60
2022-09-20T01:52:53.964Z,23.80
2022-09-20T01:56:14.595Z,24.00
2022-09-20T01:59:24.694Z,23.80
2022-09-20T02:02:40.783Z,23.80
2022-09-20T02:05:43.423Z,23.90
2022-09-20T02:09:07.914Z,23.30
2022-09-20T02:11:52.222Z,23.10
2022-09-20T02:14:54.138Z,23.10
2022-09-20T02:17:35.482Z,23.30
2022-09-20T02:20:33.377Z,23.20
2022-09-20T02:23:24.738Z,23.20
2022-09-20T02:26:21.277Z,23.30
2022-09-20T02:29:03.127Z,23.20
2022-09-20T02:32:00.030Z,22.60
2022-09-20T02:34:52.443Z,22.30
2022-09-20T02:38:04.909Z,22.50
2022-09-20T02:41:07.066Z,22.40
2022-09-20T02:43:49.440Z,22.10
2022-09-20T02:46:29.437Z,21.60
2022-09-20T02:49:09.002Z,21.70
2022-09-20T02:51:44.898Z,22.00
2022-09-20T02:54:35.189Z,22.40
2022-09-20T02:57:16.870Z,22.60
2022-09-20T02:59:53.729Z,23.00
2022-09-20T03:02:31.735Z,23.10
2022-09-20T03:05:15.677Z,22.90
2022-09-20T03:08:20.291Z,23.00
2022-09-20T03:11:00.374Z,22.60
2022-09-20T03:13:50.351Z,22.80
2022-09-20T03:16:33.566Z,23.10
2022-09-20T03:19:18.285Z,23.00
2022-09-20T03:22:04.542Z,23.10
2022-09-20T03:24:53.241Z,23.20
2022-09-20T03:27:31.995Z,23.40
2022-09-20T03:30:34.168Z,23.10
2022-09-20T03:33:16.931Z,23.00
2022-09-20T03:36:08.707Z,22.70
2022-09-20T03:38:58.441Z,22.90
2022-09-20T03:41:58.041Z,23.00
2022-09-20T03:44:48.761Z,23.00
2022-09-20T03:47:42.871Z,23.20
2022-09-20T03:50:34.836Z,22.70
2022-09-20T03:53:58.894Z,22.50
2022-09-20T03:56:48.529Z,22.80
2022-09-20T04:00:01.813Z,22.90
2022-09-20T04:02:54.901Z,22.80
2022-09-20T04:05:45.907Z,21.40
2022-09-20T04:08:40.048Z,21.20
2022-09-20T04:11:23.235Z,21.20
2022-09-20T04:13:59.257Z,21.80
2022-09-20T04:16:42.494Z,22.20
2022-09-20T04:19:23.450Z,22.60
2022-09-20T04:21:57.370Z,22.70
2022-09-20T04:24:41.923Z,22.20
2022-09-20T04:27:20.664Z,22.50
2022-09-20T04:30:00.316Z,22.60
2022-09-20T04:32:41.197Z,22.60
2022-09-20T04:35:54.034Z,22.50
2022-09-20T04:38:23.955Z,22.30
2022-09-20T04:41:51.355Z,22.50
2022-09-20T04:45:17.016Z,22.00
2022-09-20T04:48:35.900Z,22.00
2022-09-20T04:52:06.574Z,22.10
2022-09-20T04:55:25.245Z,22.10
2022-09-20T04:58:42.304Z,21.80
2022-09-20T05:02:15.652Z,21.70
2022-09-20T05:05:31.756Z,22.10
2022-09-20T05:08:58.890Z,22.30
2022-09-20T05:12:14.052Z,22.20
2022-09-20T05:15:19.173Z,22.40
2022-09-20T05:18:17.927Z,22.80
2022-09-20T05:21:11.522Z,22.80
2022-09-20T05:24:01.619Z,22.30
2022-09-20T05:26:51.422Z,22.60
2022-09-20T05:29:32.718Z,22.70
2022-09-20T05:32:13.036Z,22.50
2022-09-20T05:34:52.059Z,22.40
2022-09-20T05:37:39.009Z,22.40
2022-09-20T05:40:24.978Z,21.70
2022-09-20T05:43:03.893Z,21.50
2022-09-20T05:50:46.075Z,21.00
2022-09-20T05:54:16.085Z,21.40
2022-09-20T05:56:56.383Z,21.40
2022-09-20T05:59:42.747Z,21.70
2022-09-20T06:02:39.926Z,21.40
2022-09-20T06:05:17.654Z,21.40
2022-09-20T06:08:18.778Z,21.50
2022-09-20T06:11:37.767Z,21.90
2022-09-20T06:14:25.337Z,21.70
2022-09-20T06:17:06.121Z,21.70
2022-09-20T06:19:45.552Z,21.50
2022-09-20T06:22:23.984Z,21.20
2022-09-20T06:25:02.690Z,20.60
2022-09-20T06:27:40.778Z,21.00
2022-09-20T06:30:19.115Z,20.70
2022-09-20T06:33:00.706Z,21.10
2022-09-20T06:35:39.079Z,21.20
2022-09-20T06:39:04.713Z,21.70
2022-09-20T06:41:37.734Z,21.70
2022-09-20T06:44:08.399Z,22.00
2022-09-20T06:46:38.574Z,22.20
2022-09-20T06:49:09.624Z,22.50
2022-09-20T06:51:40.621Z,22.10
2022-09-20T06:54:18.578Z,22.20
2022-09-20T06:56:50.111Z,21.90
2022-09-20T06:59:20.083Z,22.20
2022-09-20T07:01:49.056Z,22.40
2022-09-20T07:04:17.821Z,22.70
2022-09-20T07:06:46.424Z,22.70
2022-09-20T07:09:15.283Z,22.30
2022-09-20T07:11:46.307Z,22.70
2022-09-20T07:14:15.629Z,22.60
2022-09-20T07:16:45.890Z,22.90
2022-09-20T07:19:15.126Z,23.20
2022-09-20T07:21:43.774Z,23.60
2022-09-20T07:24:15.161Z,23.60
2022-09-20T07:26:57.829Z,23.30
2022-09-20T07:29:27.220Z,23.00
2022-09-20T07:36:29.386Z,22.90
2022-09-20T07:38:58.290Z,23.00
2022-09-20T07:41:30.517Z,23.20
2022-09-20T07:44:20.091Z,22.80
2022-09-20T07:46:49.753Z,22.50
2022-09-20T07:49:18.760Z,22.80
2022-09-20T07:51:49.016Z,23.10
2022-09-20T07:54:18.603Z,23.40
2022-09-20T07:56:48.298Z,23.60
2022-09-20T07:59:17.568Z,23.80
2022-09-20T08:06:21.456Z,23.70
2022-09-20T08:08:52.332Z,23.30
2022-09-20T08:11:28.686Z,23.30
2022-09-20T08:14:08.017Z,23.60
2022-09-20T08:16:42.878Z,23.30
2022-09-20T08:19:17.691Z,23.00
2022-09-20T08:21:46.989Z,22.50
2022-09-20T08:24:17.801Z,22.20
2022-09-20T08:26:46.696Z,22.20
2022-09-20T08:29:16.111Z,22.00
2022-09-20T08:31:45.274Z,21.90
2022-09-20T08:34:16.193Z,21.40
2022-09-20T08:36:50.130Z,22.00
2022-09-20T08:42:20.054Z,22.50
2022-09-20T08:44:58.741Z,22.60
2022-09-20T08:47:32.089Z,23.00
2022-09-20T08:50:16.834Z,23.30
2022-09-20T08:52:49.397Z,23.70
2022-09-20T08:55:23.132Z,23.30
2022-09-20T08:57:56.320Z,23.60
2022-09-20T09:00:29.778Z,24.10
2022-09-20T09:03:05.403Z,23.60
2022-09-20T09:05:38.344Z,23.80
2022-09-20T09:08:16.478Z,23.70
2022-09-20T09:10:52.887Z,24.20
2022-09-20T09:13:32.847Z,24.60
2022-09-20T09:16:10.778Z,24.80
2022-09-20T09:23:44.790Z,23.30
2022-09-20T09:26:22.543Z,22.80
2022-09-20T09:29:16.671Z,23.20
2022-09-20T09:31:47.186Z,23.60
2022-09-20T09:34:35.409Z,24.00
2022-09-20T09:37:04.412Z,24.40
2022-09-20T09:44:11.048Z,24.50
2022-09-20T09:46:41.468Z,23.70
2022-09-20T09:49:17.274Z,24.10
2022-09-20T09:52:05.442Z,24.50
2022-09-20T09:54:39.509Z,24.30
2022-09-20T09:57:26.902Z,24.50
2022-09-20T10:00:16.064Z,24.20
2022-09-20T10:03:17.092Z,24.00
2022-09-20T10:06:04.953Z,23.60
2022-09-20T10:08:49.820Z,23.80
2022-09-20T10:11:38.957Z,24.00
2022-09-20T10:14:29.643Z,24.40
2022-09-20T10:17:20.747Z,23.80
2022-09-20T10:20:16.477Z,23.90
2022-09-20T10:23:29.962Z,24.10
2022-09-20T10:25:58.346Z,24.30
2022-09-20T10:28:50.443Z,24.50
2022-09-20T10:31:42.568Z,25.10
2022-09-20T10:34:45.060Z,24.90
2022-09-20T10:37:23.491Z,24.80
2022-09-20T10:40:08.312Z,25.10
2022-09-20T10:43:05.439Z,25.30
2022-09-20T10:50:28.225Z,24.80
2022-09-20T10:53:13.705Z,25.10
2022-09-20T10:55:53.066Z,25.10
2022-09-20T10:59:04.344Z,24.60
2022-09-20T11:01:43.575Z,24.40
2022-09-20T11:04:59.057Z,24.90
2022-09-20T11:07:48.708Z,25.20
2022-09-20T11:10:24.361Z,24.80
2022-09-20T11:13:02.241Z,25.20
2022-09-20T11:15:41.791Z,25.20
2022-09-20T11:18:23.637Z,25.50
2022-09-20T11:21:08.172Z,25.00
2022-09-20T11:23:51.037Z,25.00
2022-09-20T11:26:28.914Z,25.30
2022-09-20T11:29:06.105Z,25.80
2022-09-20T11:31:42.999Z,26.30
2022-09-20T11:34:22.197Z,26.50
2022-09-20T11:36:58.836Z,26.00
2022-09-20T11:39:38.223Z,26.20
2022-09-20T11:42:13.133Z,25.90
2022-09-20T11:44:43.884Z,26.30
2022-09-20T11:47:42.865Z,26.00
2022-09-20T11:51:07.142Z,25.50
2022-09-20T11:58:13.429Z,26.40
2022-09-20T12:00:47.914Z,26.10
2022-09-20T12:03:33.653Z,26.00
2022-09-20T12:06:05.642Z,25.00
2022-09-20T12:08:38.981Z,24.80
2022-09-20T13:04:56.423Z,25.70
2022-09-20T13:07:42.764Z,25.90
2022-09-20T13:10:27.594Z,25.60
2022-09-20T13:13:04.751Z,25.60
2022-09-20T13:15:34.931Z,26.10
2022-09-20T13:18:04.075Z,26.40
2022-09-20T13:20:35.892Z,25.90
2022-09-20T13:23:06.479Z,26.10
2022-09-20T13:25:40.034Z,26.00
2022-09-20T13:28:21.407Z,26.10
2022-09-20T13:30:50.083Z,25.80
2022-09-20T13:33:24.429Z,26.20
2022-09-20T13:40:34.331Z,26.60
2022-09-20T13:43:23.007Z,26.00
2022-09-20T13:45:57.374Z,25.50
2022-09-20T13:48:28.582Z,25.40
2022-09-20T13:50:58.789Z,25.10
2022-09-20T13:53:41.428Z,25.70
2022-09-20T13:56:22.531Z,25.40
2022-09-20T13:58:52.786Z,25.70
2022-09-20T14:01:30.966Z,26.00
2022-09-20T14:04:07.974Z,26.40
2022-09-20T14:06:37.910Z,25.80
2022-09-20T14:09:11.506Z,25.80
2022-09-20T14:11:42.122Z,25.80
2022-09-20T14:14:19.889Z,25.80
2022-09-20T14:16:54.177Z,26.10
2022-09-20T14:19:32.259Z,26.10
2022-09-20T14:22:06.418Z,26.60
2022-09-20T14:24:37.529Z,26.90
2022-09-20T14:27:22.248Z,27.30
2022-09-20T14:29:53.252Z,27.60
2022-09-20T14:32:48.160Z,27.80
2022-09-20T14:35:20.425Z,28.10
2022-09-20T14:37:53.161Z,28.30
2022-09-20T14:44:55.242Z,28.10
2022-09-20T14:47:30.163Z,28.00
2022-09-20T14:49:59.141Z,27.80
2022-09-20T14:52:43.742Z,27.90
2022-09-20T14:55:28.389Z,26.70
2022-09-20T14:58:05.581Z,26.80
2022-09-20T15:00:51.753Z,26.60
2022-09-20T15:03:28.317Z,26.40
2022-09-20T15:05:57.488Z,26.30
2022-09-20T15:08:26.518Z,26.10
2022-09-20T15:10:55.078Z,26.40
2022-09-20T15:13:24.039Z,26.70
2022-09-20T15:15:55.408Z,26.90
2022-09-20T15:18:27.316Z,27.00
2022-09-20T15:20:56.755Z,26.70
2022-09-20T15:23:25.388Z,26.80
2022-09-20T15:25:56.342Z,26.90
2022-09-20T15:28:26.765Z,26.90
2022-09-20T15:30:58.604Z,27.00
2022-09-20T15:33:32.330Z,26.90
2022-09-20T15:36:03.263Z,27.00
2022-09-20T15:38:32.220Z,27.10
2022-09-20T15:41:04.745Z,27.20
2022-09-20T15:43:34.033Z,27.30
2022-09-20T15:46:20.503Z,27.40
2022-09-20T15:48:49.698Z,27.40
2022-09-20T15:51:18.516Z,27.50
2022-09-20T15:53:55.577Z,27.60
2022-09-20T15:56:27.458Z,27.50
2022-09-20T15:59:00.339Z,27.50
2022-09-20T16:01:34.003Z,27.50
2022-09-20T16:04:07.561Z,27.50
2022-09-20T16:06:37.355Z,27.50
2022-09-20T16:09:07.735Z,27.60
2022-09-20T16:11:37.693Z,27.60
2022-09-20T16:14:07.739Z,27.60
2022-09-20T16:16:40.635Z,27.70
2022-09-20T16:19:20.926Z,27.70
2022-09-20T16:21:57.651Z,27.50
2022-09-20T16:24:30.592Z,27.50
2022-09-20T16:27:01.355Z,27.60
2022-09-20T16:29:31.476Z,27.50
2022-09-20T16:32:03.959Z,27.50
2022-09-20T16:34:34.962Z,27.50
2022-09-20T16:37:09.346Z,27.50
2022-09-20T16:39:38.599Z,27.40
2022-09-20T16:42:09.092Z,27.50
2022-09-20T16:44:40.521Z,27.60
2022-09-20T16:47:21.974Z,27.40
2022-09-20T16:49:51.986Z,27.30
2022-09-20T16:52:20.996Z,27.20
2022-09-20T16:54:49.968Z,27.10
2022-09-20T16:57:19.266Z,27.10
2022-09-20T16:59:48.264Z,27.20
2022-09-20T17:02:18.823Z,27.10
2022-09-20T17:04:47.567Z,27.30
2022-09-20T17:07:16.413Z,27.20
2022-09-20T17:09:45.544Z,27.10
2022-09-20T17:12:15.076Z,27.00
2022-09-20T17:14:44.137Z,27.00
2022-09-20T17:17:13.580Z,27.00
2022-09-20T17:19:43.528Z,26.90
2022-09-20T17:22:12.864Z,26.90
2022-09-20T17:24:42.076Z,27.00
2022-09-20T17:27:11.344Z,27.00
2022-09-20T17:29:40.146Z,27.10
2022-09-20T17:32:09.081Z,27.10
2022-09-20T17:34:37.944Z,27.10
2022-09-20T17:37:08.239Z,27.00
2022-09-20T17:39:36.831Z,26.90
2022-09-20T17:42:05.869Z,26.90
2022-09-20T17:44:36.821Z,26.90
2022-09-20T17:47:06.397Z,26.80
2022-09-20T17:49:35.006Z,26.80
2022-09-20T17:52:07.977Z,26.80
2022-09-20T17:54:37.898Z,26.80
2022-09-20T17:57:06.728Z,26.90
2022-09-20T17:59:36.690Z,26.80
2022-09-20T18:02:05.822Z,26.80
2022-09-20T18:04:34.547Z,26.80
2022-09-20T18:07:04.174Z,26.90
2022-09-20T18:09:32.774Z,26.90
2022-09-20T18:12:04.997Z,26.90
2022-09-20T18:14:33.564Z,26.80
2022-09-20T18:17:02.229Z,26.90
2022-09-20T18:19:33.956Z,26.80
2022-09-20T18:22:03.584Z,26.80
2022-09-20T18:24:32.724Z,26.80
2022-09-20T18:27:04.399Z,26.90
2022-09-20T18:29:36.720Z,26.90
2022-09-20T18:32:08.522Z,26.70
2022-09-20T18:34:37.283Z,26.70
2022-09-20T18:37:10.068Z,26.60
2022-09-20T18:39:43.058Z,26.50
2022-09-20T18:42:13.167Z,26.60
2022-09-20T18:44:43.926Z,26.40
2022-09-20T18:47:12.661Z,26.40
2022-09-20T18:49:41.435Z,26.40
2022-09-20T18:52:12.486Z,26.20
2022-09-20T18:54:41.365Z,26.20
2022-09-20T18:57:13.473Z,26.10
2022-09-20T18:59:53.635Z,26.10
2022-09-20T19:02:49.364Z,26.00
2022-09-20T19:05:29.438Z,26.10
2022-09-20T19:08:26.766Z,26.00
2022-09-20T19:11:04.516Z,26.00
2022-09-20T19:13:46.044Z,26.00
2022-09-20T19:16:22.358Z,26.10
2022-09-20T19:19:26.562Z,26.10
2022-09-20T19:22:16.317Z,26.10
2022-09-20T19:25:16.592Z,26.20
2022-09-20T19:27:46.226Z,26.10
2022-09-20T19:30:18.066Z,26.10
2022-09-20T19:32:48.082Z,26.20
2022-09-20T19:35:25.159Z,26.20
2022-09-20T19:42:39.114Z,26.20
2022-09-20T19:45:25.445Z,26.10
2022-09-20T19:48:07.938Z,26.00
2022-09-20T19:50:44.729Z,26.00
2022-09-20T19:53:14.945Z,26.00
2022-09-20T19:55:49.033Z,26.00
2022-09-20T19:58:18.625Z,26.00
2022-09-20T20:00:49.741Z,26.00
2022-09-20T20:03:19.097Z,25.90
2022-09-20T20:06:07.205Z,25.90
2022-09-20T20:13:42.983Z,25.90
2022-09-20T20:16:21.020Z,26.00
2022-09-20T20:19:14.207Z,26.00
2022-09-20T20:21:52.727Z,25.90
2022-09-20T20:28:53.694Z,25.80
2022-09-20T20:31:24.266Z,25.70
2022-09-20T20:43:02.051Z,25.80
2022-09-20T20:45:31.271Z,25.80
2022-09-20T20:48:01.294Z,25.70
2022-09-20T20:50:30.589Z,25.70
2022-09-20T20:57:32.063Z,25.50
2022-09-20T21:00:00.829Z,25.60
2022-09-20T21:02:29.566Z,25.50
2022-09-20T21:04:59.552Z,25.50
2022-09-20T21:12:02.550Z,25.40
2022-09-20T21:14:31.967Z,25.40
2022-09-20T21:17:01.875Z,25.50
2022-09-20T21:19:30.604Z,25.40
2022-09-20T21:22:00.759Z,25.20
2022-09-20T21:24:29.386Z,25.20
2022-09-20T21:26:57.934Z,25.30
2022-09-20T21:29:26.685Z,25.20
2022-09-20T21:31:55.540Z,25.00
2022-09-20T21:34:24.049Z,25.00
2022-09-20T21:36:52.802Z,24.80
2022-09-20T21:39:22.725Z,24.70
2022-09-20T21:41:52.617Z,24.50
2022-09-20T21:48:53.544Z,24.40
2022-09-20T21:51:23.310Z,24.10
2022-09-20T21:53:56.438Z,24.30
2022-09-20T21:56:28.988Z,24.40
2022-09-20T21:58:58.042Z,24.30
2022-09-20T22:01:29.439Z,24.30
2022-09-20T22:04:00.931Z,24.30
2022-09-20T22:06:33.736Z,24.20
2022-09-20T22:09:06.003Z,23.70
2022-09-20T22:11:39.967Z,22.80
2022-09-20T22:14:10.328Z,22.70
2022-09-20T22:16:41.660Z,22.70
2022-09-20T22:19:13.123Z,23.00
2022-09-20T22:21:44.560Z,22.90
2022-09-20T22:24:15.557Z,23.10
2022-09-20T22:26:47.940Z,23.20
2022-09-20T22:29:17.539Z,23.00
2022-09-20T22:31:49.210Z,23.10
2022-09-20T22:34:19.834Z,23.30
2022-09-20T22:41:21.897Z,23.10
2022-09-20T22:43:52.453Z,22.80
2022-09-20T22:46:24.450Z,22.80
2022-09-20T22:48:53.268Z,22.20
2022-09-20T22:51:24.889Z,22.00
2022-09-20T22:53:54.303Z,22.30
2022-09-20T22:56:25.820Z,22.30
2022-09-20T22:59:00.047Z,22.40
2022-09-20T23:01:31.494Z,22.40
2022-09-20T23:04:04.092Z,22.50
2022-09-20T23:06:36.979Z,22.80
2022-09-20T23:09:09.543Z,22.80
2022-09-20T23:11:39.818Z,22.80
2022-09-20T23:14:14.032Z,23.10
2022-09-20T23:16:44.358Z,23.20
2022-09-20T23:19:14.668Z,23.30
2022-09-20T23:21:44.920Z,23.50
2022-09-20T23:24:16.583Z,23.70
2022-09-20T23:26:46.306Z,23.60
2022-09-20T23:29:18.251Z,23.70
2022-09-20T23:31:47.984Z,23.40
2022-09-20T23:34:18.817Z,23.50
2022-09-20T23:36:47.952Z,23.40
2022-09-20T23:39:16.738Z,23.50
2022-09-20T23:41:50.702Z,23.60
2022-09-20T23:44:21.462Z,23.50
2022-09-20T23:46:50.238Z,23.80
2022-09-20T23:49:19.026Z,23.70
2022-09-20T23:51:47.646Z,23.70
2022-09-20T23:54:16.443Z,23.70
2022-09-20T23:56:44.974Z,23.40
2022-09-20T23:59:13.502Z,23.50
